sensor_id;sensor_type;location;lat;lon;timestamp;pressure;altitude;pressure_sealevel;temperature;humidity
67980;BME280;54760;47.490;19.030;2022-12-29T00:01:43;100771.84;;;1.89;79.80
67980;BME280;54760;47.490;19.030;2022-12-29T00:04:12;100777.34;;;1.64;80.70
67980;BME280;54760;47.490;19.030;2022-12-29T00:06:38;100774.38;;;2.09;78.99
67980;BME280;54760;47.490;19.030;2022-12-29T00:09:03;100778.97;;;2.09;78.59
67980;BME280;54760;47.490;19.030;2022-12-29T00:11:28;100788.03;;;2.16;78.32
67980;BME280;54760;47.490;19.030;2022-12-29T00:13:54;100784.25;;;1.78;79.44
67980;BME280;54760;47.490;19.030;2022-12-29T00:16:44;100782.72;;;1.64;80.32
67980;BME280;54760;47.490;19.030;2022-12-29T00:19:10;100778.66;;;1.30;81.42
67980;BME280;54760;47.490;19.030;2022-12-29T00:21:56;100772.87;;;1.56;81.77
67980;BME280;54760;47.490;19.030;2022-12-29T00:24:41;100764.50;;;1.73;80.66
67980;BME280;54760;47.490;19.030;2022-12-29T00:27:19;100766.13;;;1.50;80.85
67980;BME280;54760;47.490;19.030;2022-12-29T00:30:09;100765.66;;;2.16;78.80
67980;BME280;54760;47.490;19.030;2022-12-29T00:32:53;100770.72;;;2.17;78.00
67980;BME280;54760;47.490;19.030;2022-12-29T00:35:47;100767.59;;;1.48;80.09
67980;BME280;54760;47.490;19.030;2022-12-29T00:38:17;100774.12;;;1.35;82.59
67980;BME280;54760;47.490;19.030;2022-12-29T00:41:01;100773.06;;;1.11;82.33
67980;BME280;54760;47.490;19.030;2022-12-29T00:43:45;100772.66;;;1.49;82.29
67980;BME280;54760;47.490;19.030;2022-12-29T00:46:29;100772.03;;;1.04;82.54
67980;BME280;54760;47.490;19.030;2022-12-29T00:48:56;100772.81;;;1.04;84.37
67980;BME280;54760;47.490;19.030;2022-12-29T00:51:40;100765.72;;;1.24;81.93
67980;BME280;54760;47.490;19.030;2022-12-29T00:54:05;100774.16;;;0.98;83.14
67980;BME280;54760;47.490;19.030;2022-12-29T00:56:31;100771.56;;;0.53;85.70
67980;BME280;54760;47.490;19.030;2022-12-29T00:59:03;100785.03;;;0.53;86.35
67980;BME280;54760;47.490;19.030;2022-12-29T01:01:29;100775.13;;;1.42;82.67
67980;BME280;54760;47.490;19.030;2022-12-29T01:03:55;100773.44;;;1.38;81.31
67980;BME280;54760;47.490;19.030;2022-12-29T01:06:20;100771.59;;;0.77;85.08
67980;BME280;54760;47.490;19.030;2022-12-29T01:08:46;100777.41;;;1.28;83.09
67980;BME280;54760;47.490;19.030;2022-12-29T01:11:12;100766.41;;;1.09;83.77
67980;BME280;54760;47.490;19.030;2022-12-29T01:13:38;100773.94;;;1.15;83.56
67980;BME280;54760;47.490;19.030;2022-12-29T01:16:06;100765.47;;;1.41;82.62
67980;BME280;54760;47.490;19.030;2022-12-29T01:18:31;100767.06;;;1.30;82.41
67980;BME280;54760;47.490;19.030;2022-12-29T01:21:01;100764.28;;;0.90;84.51
67980;BME280;54760;47.490;19.030;2022-12-29T01:23:28;100770.44;;;0.66;85.28
67980;BME280;54760;47.490;19.030;2022-12-29T01:25:53;100777.50;;;1.44;82.63
67980;BME280;54760;47.490;19.030;2022-12-29T01:28:19;100780.69;;;1.21;83.00
67980;BME280;54760;47.490;19.030;2022-12-29T01:30:44;100775.06;;;1.14;83.68
67980;BME280;54760;47.490;19.030;2022-12-29T01:33:10;100765.50;;;1.05;83.08
67980;BME280;54760;47.490;19.030;2022-12-29T01:35:35;100761.00;;;1.09;83.82
67980;BME280;54760;47.490;19.030;2022-12-29T01:38:01;100760.34;;;1.00;84.63
67980;BME280;54760;47.490;19.030;2022-12-29T01:40:26;100755.72;;;1.24;83.37
67980;BME280;54760;47.490;19.030;2022-12-29T01:42:52;100763.13;;;1.27;82.92
67980;BME280;54760;47.490;19.030;2022-12-29T01:45:17;100773.69;;;1.33;82.35
67980;BME280;54760;47.490;19.030;2022-12-29T01:47:47;100763.06;;;1.12;82.93
67980;BME280;54760;47.490;19.030;2022-12-29T01:50:26;100755.34;;;1.50;82.42
67980;BME280;54760;47.490;19.030;2022-12-29T01:53:00;100748.38;;;1.77;80.69
67980;BME280;54760;47.490;19.030;2022-12-29T01:55:29;100754.97;;;1.92;79.65
67980;BME280;54760;47.490;19.030;2022-12-29T01:57:58;100754.50;;;1.22;81.73
67980;BME280;54760;47.490;19.030;2022-12-29T02:00:26;100759.69;;;0.91;84.60
67980;BME280;54760;47.490;19.030;2022-12-29T02:02:52;100752.66;;;1.38;82.29
67980;BME280;54760;47.490;19.030;2022-12-29T02:05:36;100752.72;;;1.94;79.77
67980;BME280;54760;47.490;19.030;2022-12-29T02:08:03;100744.03;;;2.00;78.83
67980;BME280;54760;47.490;19.030;2022-12-29T02:10:31;100739.84;;;2.03;78.79
67980;BME280;54760;47.490;19.030;2022-12-29T02:12:57;100740.44;;;1.96;79.00
67980;BME280;54760;47.490;19.030;2022-12-29T02:18:48;100735.13;;;1.44;80.92
67980;BME280;54760;47.490;19.030;2022-12-29T02:30:16;100721.87;;;1.95;79.00
67980;BME280;54760;47.490;19.030;2022-12-29T02:33:00;100722.56;;;1.36;81.97
67980;BME280;54760;47.490;19.030;2022-12-29T02:38:59;100723.91;;;1.30;82.34
67980;BME280;54760;47.490;19.030;2022-12-29T02:44:19;100717.66;;;1.54;81.16
67980;BME280;54760;47.490;19.030;2022-12-29T02:47:08;100719.41;;;1.34;81.24
67980;BME280;54760;47.490;19.030;2022-12-29T02:49:46;100716.97;;;1.05;83.52
67980;BME280;54760;47.490;19.030;2022-12-29T02:52:17;100721.81;;;1.11;83.01
67980;BME280;54760;47.490;19.030;2022-12-29T02:54:44;100717.56;;;0.62;85.82
67980;BME280;54760;47.490;19.030;2022-12-29T02:59:38;100717.91;;;0.84;85.02
67980;BME280;54760;47.490;19.030;2022-12-29T03:07:54;100704.28;;;0.93;84.67
67980;BME280;54760;47.490;19.030;2022-12-29T03:16:28;100708.19;;;1.20;83.89
67980;BME280;54760;47.490;19.030;2022-12-29T03:19:02;100703.03;;;1.15;82.73
67980;BME280;54760;47.490;19.030;2022-12-29T03:21:43;100698.75;;;1.14;82.91
67980;BME280;54760;47.490;19.030;2022-12-29T03:24:37;100704.84;;;0.99;83.46
67980;BME280;54760;47.490;19.030;2022-12-29T03:27:05;100701.50;;;1.02;83.92
67980;BME280;54760;47.490;19.030;2022-12-29T03:29:36;100702.56;;;1.13;83.12
67980;BME280;54760;47.490;19.030;2022-12-29T03:32:04;100697.22;;;0.64;86.08
67980;BME280;54760;47.490;19.030;2022-12-29T03:34:33;100682.19;;;0.75;85.21
67980;BME280;54760;47.490;19.030;2022-12-29T03:37:05;100683.00;;;0.52;86.66
67980;BME280;54760;47.490;19.030;2022-12-29T03:39:33;100678.50;;;0.56;87.62
67980;BME280;54760;47.490;19.030;2022-12-29T03:42:03;100676.22;;;0.94;84.97
67980;BME280;54760;47.490;19.030;2022-12-29T03:44:36;100675.00;;;0.55;85.92
67980;BME280;54760;47.490;19.030;2022-12-29T03:47:03;100681.81;;;0.04;88.87
67980;BME280;54760;47.490;19.030;2022-12-29T03:49:29;100682.31;;;0.42;87.17
67980;BME280;54760;47.490;19.030;2022-12-29T03:51:54;100677.91;;;0.14;88.59
67980;BME280;54760;47.490;19.030;2022-12-29T03:54:20;100684.78;;;-0.10;90.74
67980;BME280;54760;47.490;19.030;2022-12-29T03:56:45;100682.62;;;0.41;89.26
67980;BME280;54760;47.490;19.030;2022-12-29T03:59:10;100687.59;;;0.75;86.29
67980;BME280;54760;47.490;19.030;2022-12-29T04:01:36;100690.75;;;0.53;87.88
67980;BME280;54760;47.490;19.030;2022-12-29T04:04:01;100687.03;;;0.33;87.44
67980;BME280;54760;47.490;19.030;2022-12-29T04:06:27;100694.75;;;0.59;87.85
67980;BME280;54760;47.490;19.030;2022-12-29T04:08:52;100687.91;;;0.74;86.38
67980;BME280;54760;47.490;19.030;2022-12-29T04:11:17;100687.81;;;0.34;88.43
67980;BME280;54760;47.490;19.030;2022-12-29T04:13:43;100690.91;;;0.12;89.65
67980;BME280;54760;47.490;19.030;2022-12-29T04:16:08;100689.59;;;0.42;88.95
67980;BME280;54760;47.490;19.030;2022-12-29T04:18:34;100691.28;;;0.59;87.76
67980;BME280;54760;47.490;19.030;2022-12-29T04:20:59;100688.28;;;0.72;87.27
67980;BME280;54760;47.490;19.030;2022-12-29T04:23:26;100677.69;;;0.79;86.55
67980;BME280;54760;47.490;19.030;2022-12-29T04:25:51;100689.06;;;0.49;87.62
67980;BME280;54760;47.490;19.030;2022-12-29T04:28:17;100682.44;;;0.34;88.43
67980;BME280;54760;47.490;19.030;2022-12-29T04:30:43;100686.25;;;0.81;86.85
67980;BME280;54760;47.490;19.030;2022-12-29T04:33:09;100687.38;;;0.68;86.95
67980;BME280;54760;47.490;19.030;2022-12-29T04:35:35;100692.94;;;1.00;84.92
67980;BME280;54760;47.490;19.030;2022-12-29T04:38:00;100693.97;;;0.95;85.26
67980;BME280;54760;47.490;19.030;2022-12-29T04:40:26;100692.53;;;0.37;87.36
67980;BME280;54760;47.490;19.030;2022-12-29T04:42:51;100690.28;;;0.63;87.70
67980;BME280;54760;47.490;19.030;2022-12-29T04:45:17;100685.09;;;1.07;84.71
67980;BME280;54760;47.490;19.030;2022-12-29T04:47:42;100686.66;;;0.96;84.90
67980;BME280;54760;47.490;19.030;2022-12-29T04:50:08;100682.75;;;0.69;85.79
67980;BME280;54760;47.490;19.030;2022-12-29T04:52:33;100678.34;;;0.88;86.71
67980;BME280;54760;47.490;19.030;2022-12-29T04:54:59;100681.06;;;0.64;86.91
67980;BME280;54760;47.490;19.030;2022-12-29T04:57:24;100690.38;;;0.55;87.64
67980;BME280;54760;47.490;19.030;2022-12-29T04:59:50;100686.25;;;0.81;87.50
67980;BME280;54760;47.490;19.030;2022-12-29T05:02:16;100679.62;;;0.67;86.21
67980;BME280;54760;47.490;19.030;2022-12-29T05:04:42;100684.44;;;0.61;87.83
67980;BME280;54760;47.490;19.030;2022-12-29T05:07:07;100694.94;;;1.15;85.97
67980;BME280;54760;47.490;19.030;2022-12-29T05:09:33;100689.62;;;1.30;84.00
67980;BME280;54760;47.490;19.030;2022-12-29T05:11:58;100685.66;;;1.00;86.05
67980;BME280;54760;47.490;19.030;2022-12-29T05:14:24;100685.75;;;1.44;83.69
67980;BME280;54760;47.490;19.030;2022-12-29T05:16:49;100688.06;;;1.17;85.45
67980;BME280;54760;47.490;19.030;2022-12-29T05:19:15;100688.37;;;1.40;83.92
67980;BME280;54760;47.490;19.030;2022-12-29T05:21:42;100689.69;;;1.74;82.66
67980;BME280;54760;47.490;19.030;2022-12-29T05:24:08;100684.31;;;1.46;83.27
67980;BME280;54760;47.490;19.030;2022-12-29T05:26:33;100677.81;;;1.35;83.97
67980;BME280;54760;47.490;19.030;2022-12-29T05:28:59;100687.66;;;1.03;84.80
67980;BME280;54760;47.490;19.030;2022-12-29T05:31:25;100682.81;;;1.21;84.23
67980;BME280;54760;47.490;19.030;2022-12-29T05:33:51;100684.84;;;1.12;83.72
67980;BME280;54760;47.490;19.030;2022-12-29T05:36:16;100689.50;;;0.75;85.72
67980;BME280;54760;47.490;19.030;2022-12-29T05:38:42;100680.91;;;1.09;85.08
67980;BME280;54760;47.490;19.030;2022-12-29T05:41:07;100678.84;;;1.58;82.52
67980;BME280;54760;47.490;19.030;2022-12-29T05:43:33;100684.97;;;1.43;82.85
67980;BME280;54760;47.490;19.030;2022-12-29T05:45:58;100675.03;;;1.59;82.21
67980;BME280;54760;47.490;19.030;2022-12-29T05:48:24;100682.16;;;1.00;84.90
67980;BME280;54760;47.490;19.030;2022-12-29T05:50:50;100678.78;;;1.03;83.68
67980;BME280;54760;47.490;19.030;2022-12-29T05:53:16;100672.03;;;1.49;83.00
67980;BME280;54760;47.490;19.030;2022-12-29T05:55:43;100668.19;;;1.22;83.53
67980;BME280;54760;47.490;19.030;2022-12-29T05:58:08;100665.78;;;0.93;84.50
67980;BME280;54760;47.490;19.030;2022-12-29T06:00:34;100657.13;;;0.99;83.89
67980;BME280;54760;47.490;19.030;2022-12-29T06:02:59;100658.53;;;1.09;83.67
67980;BME280;54760;47.490;19.030;2022-12-29T06:05:25;100659.34;;;1.37;82.87
67980;BME280;54760;47.490;19.030;2022-12-29T06:07:50;100664.47;;;1.26;83.29
67980;BME280;54760;47.490;19.030;2022-12-29T06:10:16;100672.09;;;1.37;82.19
67980;BME280;54760;47.490;19.030;2022-12-29T06:12:42;100668.53;;;1.08;83.05
67980;BME280;54760;47.490;19.030;2022-12-29T06:15:08;100669.00;;;0.98;83.78
67980;BME280;54760;47.490;19.030;2022-12-29T06:17:33;100668.38;;;1.29;82.54
67980;BME280;54760;47.490;19.030;2022-12-29T06:19:59;100667.19;;;1.14;83.59
67980;BME280;54760;47.490;19.030;2022-12-29T06:22:24;100662.72;;;1.06;83.44
67980;BME280;54760;47.490;19.030;2022-12-29T06:24:50;100664.75;;;1.37;82.18
67980;BME280;54760;47.490;19.030;2022-12-29T06:27:15;100677.34;;;1.45;81.95
67980;BME280;54760;47.490;19.030;2022-12-29T06:29:41;100666.56;;;1.33;82.15
67980;BME280;54760;47.490;19.030;2022-12-29T06:32:08;100670.09;;;1.21;82.39
67980;BME280;54760;47.490;19.030;2022-12-29T06:34:33;100667.47;;;0.97;83.31
67980;BME280;54760;47.490;19.030;2022-12-29T06:36:59;100675.66;;;0.88;84.22
67980;BME280;54760;47.490;19.030;2022-12-29T06:39:24;100679.22;;;1.05;84.09
67980;BME280;54760;47.490;19.030;2022-12-29T06:41:53;100673.09;;;1.32;82.42
67980;BME280;54760;47.490;19.030;2022-12-29T06:44:22;100670.31;;;1.56;81.25
67980;BME280;54760;47.490;19.030;2022-12-29T06:46:48;100676.56;;;1.33;81.28
67980;BME280;54760;47.490;19.030;2022-12-29T06:49:13;100678.38;;;1.41;81.80
67980;BME280;54760;47.490;19.030;2022-12-29T06:51:39;100681.37;;;1.51;81.41
67980;BME280;54760;47.490;19.030;2022-12-29T06:54:05;100687.69;;;0.91;84.12
67980;BME280;54760;47.490;19.030;2022-12-29T06:56:31;100685.56;;;0.72;84.78
67980;BME280;54760;47.490;19.030;2022-12-29T06:58:56;100687.78;;;1.07;83.93
67980;BME280;54760;47.490;19.030;2022-12-29T07:01:22;100682.41;;;1.35;82.97
67980;BME280;54760;47.490;19.030;2022-12-29T07:03:47;100687.25;;;1.41;81.02
67980;BME280;54760;47.490;19.030;2022-12-29T07:06:13;100687.53;;;1.52;80.41
67980;BME280;54760;47.490;19.030;2022-12-29T07:08:38;100688.16;;;1.33;80.89
67980;BME280;54760;47.490;19.030;2022-12-29T07:11:04;100693.12;;;1.31;81.31
67980;BME280;54760;47.490;19.030;2022-12-29T07:13:30;100687.56;;;1.40;80.97
67980;BME280;54760;47.490;19.030;2022-12-29T07:15:55;100696.38;;;1.24;81.77
67980;BME280;54760;47.490;19.030;2022-12-29T07:18:21;100690.19;;;1.36;81.82
67980;BME280;54760;47.490;19.030;2022-12-29T07:20:46;100690.34;;;1.55;81.48
67980;BME280;54760;47.490;19.030;2022-12-29T07:23:12;100697.25;;;1.68;80.08
67980;BME280;54760;47.490;19.030;2022-12-29T07:25:37;100698.91;;;1.45;81.40
67980;BME280;54760;47.490;19.030;2022-12-29T07:28:05;100693.28;;;1.50;81.50
67980;BME280;54760;47.490;19.030;2022-12-29T07:30:30;100703.34;;;1.65;80.43
67980;BME280;54760;47.490;19.030;2022-12-29T07:32:56;100703.53;;;1.45;81.75
67980;BME280;54760;47.490;19.030;2022-12-29T07:35:22;100705.78;;;1.43;81.43
67980;BME280;54760;47.490;19.030;2022-12-29T07:37:47;100701.66;;;1.89;80.12
67980;BME280;54760;47.490;19.030;2022-12-29T07:40:13;100694.94;;;1.83;79.99
67980;BME280;54760;47.490;19.030;2022-12-29T07:42:39;100689.66;;;2.02;79.10
67980;BME280;54760;47.490;19.030;2022-12-29T07:45:04;100698.06;;;2.28;78.53
67980;BME280;54760;47.490;19.030;2022-12-29T07:47:30;100687.47;;;1.92;80.13
67980;BME280;54760;47.490;19.030;2022-12-29T07:49:55;100701.56;;;2.44;78.28
67980;BME280;54760;47.490;19.030;2022-12-29T07:52:21;100700.84;;;2.47;78.20
67980;BME280;54760;47.490;19.030;2022-12-29T07:54:46;100698.34;;;2.89;76.31
67980;BME280;54760;47.490;19.030;2022-12-29T07:57:12;100704.03;;;2.84;75.73
67980;BME280;54760;47.490;19.030;2022-12-29T07:59:37;100703.38;;;2.40;76.98
67980;BME280;54760;47.490;19.030;2022-12-29T08:02:03;100703.19;;;2.17;77.18
67980;BME280;54760;47.490;19.030;2022-12-29T08:04:28;100704.50;;;2.24;77.21
67980;BME280;54760;47.490;19.030;2022-12-29T08:06:53;100700.66;;;2.40;76.95
67980;BME280;54760;47.490;19.030;2022-12-29T08:09:19;100702.84;;;2.82;75.75
67980;BME280;54760;47.490;19.030;2022-12-29T08:11:44;100709.56;;;2.56;75.85
67980;BME280;54760;47.490;19.030;2022-12-29T08:14:10;100700.66;;;2.72;75.23
67980;BME280;54760;47.490;19.030;2022-12-29T08:16:35;100696.38;;;2.55;76.00
67980;BME280;54760;47.490;19.030;2022-12-29T08:19:01;100691.44;;;2.73;76.57
67980;BME280;54760;47.490;19.030;2022-12-29T08:21:27;100694.81;;;2.70;75.62
67980;BME280;54760;47.490;19.030;2022-12-29T08:23:53;100684.94;;;2.93;75.19
67980;BME280;54760;47.490;19.030;2022-12-29T08:26:18;100692.97;;;2.74;75.28
67980;BME280;54760;47.490;19.030;2022-12-29T08:28:43;100685.25;;;2.56;75.85
67980;BME280;54760;47.490;19.030;2022-12-29T08:31:09;100682.31;;;2.81;75.13
67980;BME280;54760;47.490;19.030;2022-12-29T08:33:34;100685.50;;;2.51;75.79
67980;BME280;54760;47.490;19.030;2022-12-29T08:36:05;100674.03;;;2.74;75.45
67980;BME280;54760;47.490;19.030;2022-12-29T08:38:31;100675.16;;;2.88;74.86
67980;BME280;54760;47.490;19.030;2022-12-29T08:40:57;100681.47;;;2.77;75.36
67980;BME280;54760;47.490;19.030;2022-12-29T08:43:24;100672.31;;;2.81;75.46
67980;BME280;54760;47.490;19.030;2022-12-29T08:45:50;100679.00;;;2.87;74.90
67980;BME280;54760;47.490;19.030;2022-12-29T08:48:16;100680.06;;;2.83;74.95
67980;BME280;54760;47.490;19.030;2022-12-29T08:50:45;100681.22;;;2.66;75.62
67980;BME280;54760;47.490;19.030;2022-12-29T08:53:10;100677.47;;;2.71;75.84
67980;BME280;54760;47.490;19.030;2022-12-29T08:55:36;100675.78;;;2.82;75.36
67980;BME280;54760;47.490;19.030;2022-12-29T08:58:01;100673.22;;;2.89;74.97
67980;BME280;54760;47.490;19.030;2022-12-29T09:00:27;100674.87;;;2.58;76.40
67980;BME280;54760;47.490;19.030;2022-12-29T09:02:52;100673.84;;;2.98;74.42
67980;BME280;54760;47.490;19.030;2022-12-29T09:05:17;100670.34;;;2.62;75.96
67980;BME280;54760;47.490;19.030;2022-12-29T09:07:43;100674.09;;;2.42;76.65
67980;BME280;54760;47.490;19.030;2022-12-29T09:10:08;100663.03;;;2.47;76.62
67980;BME280;54760;47.490;19.030;2022-12-29T09:12:34;100664.16;;;2.46;76.83
67980;BME280;54760;47.490;19.030;2022-12-29T09:14:59;100656.16;;;2.85;75.55
67980;BME280;54760;47.490;19.030;2022-12-29T09:17:25;100661.31;;;2.74;75.71
67980;BME280;54760;47.490;19.030;2022-12-29T09:20:06;100659.84;;;2.77;75.61
67980;BME280;54760;47.490;19.030;2022-12-29T09:22:31;100654.22;;;3.20;75.00
67980;BME280;54760;47.490;19.030;2022-12-29T09:24:57;100653.00;;;3.18;74.24
67980;BME280;54760;47.490;19.030;2022-12-29T09:27:22;100649.53;;;3.36;73.29
67980;BME280;54760;47.490;19.030;2022-12-29T09:29:48;100651.94;;;3.61;72.25
67980;BME280;54760;47.490;19.030;2022-12-29T09:32:13;100629.28;;;3.49;73.24
67980;BME280;54760;47.490;19.030;2022-12-29T09:34:39;100637.41;;;3.30;73.42
67980;BME280;54760;47.490;19.030;2022-12-29T09:37:04;100636.03;;;3.59;72.95
67980;BME280;54760;47.490;19.030;2022-12-29T09:39:29;100633.28;;;3.36;73.19
67980;BME280;54760;47.490;19.030;2022-12-29T09:42:14;100634.84;;;3.37;73.18
67980;BME280;54760;47.490;19.030;2022-12-29T09:45:10;100628.56;;;3.33;72.93
67980;BME280;54760;47.490;19.030;2022-12-29T09:47:41;100628.50;;;3.30;73.28
67980;BME280;54760;47.490;19.030;2022-12-29T09:52:50;100626.84;;;3.64;71.68
67980;BME280;54760;47.490;19.030;2022-12-29T09:55:21;100619.28;;;3.73;71.64
67980;BME280;54760;47.490;19.030;2022-12-29T09:58:02;100619.41;;;3.80;71.54
67980;BME280;54760;47.490;19.030;2022-12-29T10:03:26;100624.84;;;3.80;71.18
67980;BME280;54760;47.490;19.030;2022-12-29T10:06:11;100613.41;;;3.48;72.37
67980;BME280;54760;47.490;19.030;2022-12-29T10:08:47;100607.31;;;3.97;71.10
67980;BME280;54760;47.490;19.030;2022-12-29T10:17:10;100594.00;;;4.33;69.44
67980;BME280;54760;47.490;19.030;2022-12-29T10:19:56;100588.97;;;4.09;70.30
67980;BME280;54760;47.490;19.030;2022-12-29T10:24:56;100602.31;;;3.76;71.45
67980;BME280;54760;47.490;19.030;2022-12-29T10:27:22;100598.06;;;3.75;72.29
67980;BME280;54760;47.490;19.030;2022-12-29T10:29:54;100592.16;;;3.92;70.53
67980;BME280;54760;47.490;19.030;2022-12-29T10:32:42;100597.63;;;3.73;71.71
67980;BME280;54760;47.490;19.030;2022-12-29T10:35:26;100591.84;;;4.20;70.04
67980;BME280;54760;47.490;19.030;2022-12-29T10:40:38;100588.38;;;3.32;73.08
67980;BME280;54760;47.490;19.030;2022-12-29T10:43:26;100593.41;;;3.14;74.02
67980;BME280;54760;47.490;19.030;2022-12-29T10:45:57;100599.25;;;2.97;74.73
67980;BME280;54760;47.490;19.030;2022-12-29T10:48:31;100589.13;;;2.94;74.63
67980;BME280;54760;47.490;19.030;2022-12-29T10:50:59;100578.00;;;3.37;74.02
67980;BME280;54760;47.490;19.030;2022-12-29T10:53:35;100576.81;;;3.35;73.68
67980;BME280;54760;47.490;19.030;2022-12-29T10:56:13;100589.13;;;3.13;74.27
67980;BME280;54760;47.490;19.030;2022-12-29T10:58:41;100583.31;;;3.11;73.92
67980;BME280;54760;47.490;19.030;2022-12-29T11:01:09;100567.47;;;3.32;73.89
67980;BME280;54760;47.490;19.030;2022-12-29T11:04:57;100571.34;;;3.31;73.52
67980;BME280;54760;47.490;19.030;2022-12-29T11:06:50;100563.00;;;3.40;73.46
67980;BME280;54760;47.490;19.030;2022-12-29T11:09:21;100567.31;;;3.44;73.67
67980;BME280;54760;47.490;19.030;2022-12-29T11:11:48;100562.34;;;3.46;73.75
67980;BME280;54760;47.490;19.030;2022-12-29T11:14:18;100569.75;;;3.49;73.46
67980;BME280;54760;47.490;19.030;2022-12-29T11:16:44;100558.38;;;3.40;73.67
67980;BME280;54760;47.490;19.030;2022-12-29T11:19:23;100563.84;;;3.44;73.82
67980;BME280;54760;47.490;19.030;2022-12-29T11:21:50;100574.03;;;3.51;73.61
67980;BME280;54760;47.490;19.030;2022-12-29T11:24:27;100563.78;;;3.40;73.64
67980;BME280;54760;47.490;19.030;2022-12-29T11:27:17;100563.44;;;3.42;73.87
67980;BME280;54760;47.490;19.030;2022-12-29T11:29:44;100556.84;;;3.43;73.71
67980;BME280;54760;47.490;19.030;2022-12-29T11:32:20;100555.72;;;3.44;74.02
67980;BME280;54760;47.490;19.030;2022-12-29T11:34:46;100550.31;;;3.67;73.95
67980;BME280;54760;47.490;19.030;2022-12-29T11:37:16;100536.38;;;3.65;73.56
67980;BME280;54760;47.490;19.030;2022-12-29T11:39:58;100523.50;;;3.81;73.28
67980;BME280;54760;47.490;19.030;2022-12-29T11:42:36;100529.75;;;3.85;72.62
67980;BME280;54760;47.490;19.030;2022-12-29T11:45:19;100527.88;;;3.89;72.86
67980;BME280;54760;47.490;19.030;2022-12-29T11:47:47;100525.81;;;4.05;72.25
67980;BME280;54760;47.490;19.030;2022-12-29T11:50:21;100521.72;;;4.15;72.49
67980;BME280;54760;47.490;19.030;2022-12-29T11:52:49;100525.56;;;4.14;71.93
67980;BME280;54760;47.490;19.030;2022-12-29T11:55:21;100527.78;;;4.08;72.13
67980;BME280;54760;47.490;19.030;2022-12-29T11:57:50;100525.59;;;4.17;72.28
67980;BME280;54760;47.490;19.030;2022-12-29T12:00:22;100525.50;;;4.10;72.75
67980;BME280;54760;47.490;19.030;2022-12-29T12:03:22;100521.31;;;4.16;72.78
67980;BME280;54760;47.490;19.030;2022-12-29T12:06:01;100530.44;;;4.31;72.25
67980;BME280;54760;47.490;19.030;2022-12-29T12:08:35;100531.75;;;4.14;72.52
67980;BME280;54760;47.490;19.030;2022-12-29T12:11:14;100535.81;;;4.27;72.54
67980;BME280;54760;47.490;19.030;2022-12-29T12:13:59;100525.72;;;4.24;72.46
67980;BME280;54760;47.490;19.030;2022-12-29T12:16:37;100518.78;;;4.27;72.69
67980;BME280;54760;47.490;19.030;2022-12-29T12:19:13;100519.88;;;4.49;72.21
67980;BME280;54760;47.490;19.030;2022-12-29T12:21:44;100515.97;;;4.50;72.15
67980;BME280;54760;47.490;19.030;2022-12-29T12:29:59;100509.91;;;4.60;71.64
67980;BME280;54760;47.490;19.030;2022-12-29T12:34:59;100483.69;;;4.67;71.99
67980;BME280;54760;47.490;19.030;2022-12-29T12:37:57;100470.28;;;4.82;71.08
67980;BME280;54760;47.490;19.030;2022-12-29T12:40:33;100470.22;;;5.99;69.32
67980;BME280;54760;47.490;19.030;2022-12-29T12:43:40;100455.94;;;7.07;63.47
67980;BME280;54760;47.490;19.030;2022-12-29T12:49:04;100451.97;;;8.53;59.12
67980;BME280;54760;47.490;19.030;2022-12-29T12:52:32;100448.44;;;9.32;55.58
67980;BME280;54760;47.490;19.030;2022-12-29T12:57:48;100458.94;;;10.26;52.40
67980;BME280;54760;47.490;19.030;2022-12-29T13:00:19;100446.16;;;10.16;52.86
67980;BME280;54760;47.490;19.030;2022-12-29T13:08:46;100459.81;;;10.54;51.57
67980;BME280;54760;47.490;19.030;2022-12-29T13:17:23;100458.50;;;9.39;54.61
67980;BME280;54760;47.490;19.030;2022-12-29T13:25:51;100469.97;;;8.25;58.43
67980;BME280;54760;47.490;19.030;2022-12-29T13:28:31;100466.09;;;7.88;59.56
67980;BME280;54760;47.490;19.030;2022-12-29T13:31:26;100467.31;;;7.87;59.49
67980;BME280;54760;47.490;19.030;2022-12-29T13:36:40;100477.34;;;7.15;61.89
67980;BME280;54760;47.490;19.030;2022-12-29T13:39:21;100474.63;;;7.15;62.07
67980;BME280;54760;47.490;19.030;2022-12-29T13:41:53;100482.84;;;7.54;61.11
67980;BME280;54760;47.490;19.030;2022-12-29T13:44:27;100476.59;;;7.25;61.42
67980;BME280;54760;47.490;19.030;2022-12-29T13:46:55;100484.31;;;7.06;62.08
67980;BME280;54760;47.490;19.030;2022-12-29T13:49:24;100483.88;;;6.89;62.91
67980;BME280;54760;47.490;19.030;2022-12-29T13:51:56;100476.94;;;7.10;62.39
67980;BME280;54760;47.490;19.030;2022-12-29T13:57:17;100488.19;;;6.97;62.88
67980;BME280;54760;47.490;19.030;2022-12-29T14:02:38;100490.84;;;6.73;63.81
67980;BME280;54760;47.490;19.030;2022-12-29T14:07:45;100488.22;;;6.22;65.62
67980;BME280;54760;47.490;19.030;2022-12-29T14:10:33;100498.28;;;6.11;66.34
67980;BME280;54760;47.490;19.030;2022-12-29T14:13:12;100501.47;;;6.27;66.23
67980;BME280;54760;47.490;19.030;2022-12-29T14:15:39;100496.28;;;6.07;66.93
67980;BME280;54760;47.490;19.030;2022-12-29T14:18:17;100498.22;;;6.03;66.75
67980;BME280;54760;47.490;19.030;2022-12-29T14:20:54;100493.34;;;5.79;67.78
67980;BME280;54760;47.490;19.030;2022-12-29T14:31:02;100492.47;;;4.91;71.29
67980;BME280;54760;47.490;19.030;2022-12-29T14:33:30;100483.97;;;4.92;71.37
67980;BME280;54760;47.490;19.030;2022-12-29T14:35:57;100485.09;;;4.88;71.60
67980;BME280;54760;47.490;19.030;2022-12-29T14:38:46;100494.00;;;4.88;71.74
67980;BME280;54760;47.490;19.030;2022-12-29T14:41:18;100495.72;;;4.70;72.16
67980;BME280;54760;47.490;19.030;2022-12-29T14:44:18;100499.47;;;4.92;71.85
67980;BME280;54760;47.490;19.030;2022-12-29T14:49:21;100499.97;;;4.67;72.89